Time;durP1;ratioP1;P1;durP2;ratioP2;P2;SDS_P1;SDS_P2;PMS_P1;PMS_P2;Temp;Humidity;BMP_temperature;BMP_pressure;BME280_temperature;BME280_humidity;BME280_pressure;Samples;Min_cycle;Max_cycle;Signal;HPM_P1;HPM_P2
2023/11/08 10:40:14;;;;;;;4.40;3.10;;;11.10;99.90;;;;;;6218069;22;20414;-92
2023/11/08 10:43:02;;;;;;;3.60;1.90;;;;;;;;;;6271375;22;20394;-93
2023/11/08 10:46:03;;;;;;;2.30;1.93;;;11.10;99.90;;;;;;6275602;22;20378;-93
2023/11/08 10:48:42;;;;;;;2.57;2.13;;;;;;;;;;6130881;23;20515;-94
2023/11/08 10:51:19;;;;;;;2.80;2.23;;;;;;;;;;6305678;22;20447;-93
2023/11/08 10:57:00;;;;;;;2.33;2.03;;;11.30;1.00;;;;;;6294888;22;20393;-92
2023/11/08 10:59:50;;;;;;;2.63;2.33;;;11.20;1.00;;;;;;6305698;22;20404;-92
2023/11/08 11:02:28;;;;;;;8.57;3.37;;;11.20;3.30;;;;;;6305635;22;20430;-91
2023/11/08 11:05:14;;;;;;;1.90;1.80;;;11.20;1.00;;;;;;6305137;22;20397;-92
2023/11/08 11:07:56;;;;;;;2.70;1.77;;;11.00;1.00;;;;;;6302463;22;20383;-92
2023/11/08 11:10:33;;;;;;;2.17;1.97;;;;;;;;;;6302435;22;20401;-92
2023/11/08 11:13:15;;;;;;;2.30;2.10;;;11.00;1.00;;;;;;6303881;22;20428;-92
2023/11/08 11:15:55;;;;;;;6.67;2.03;;;11.00;1.00;;;;;;6300701;22;20465;-93
2023/11/08 11:18:45;;;;;;;3.33;2.60;;;11.00;1.00;;;;;;6300788;22;20403;-93
2023/11/08 11:21:34;;;;;;;3.20;2.50;;;11.10;1.00;;;;;;6300445;22;20404;-92
2023/11/08 11:24:01;;;;;;;4.57;3.23;;;;;;;;;;6299258;22;20432;-92
2023/11/08 11:26:55;;;;;;;5.50;4.37;;;;;;;;;;6302341;22;20391;-92
2023/11/08 11:29:39;;;;;;;3.57;3.27;;;;;;;;;;6299000;22;20428;-92
2023/11/08 11:32:40;;;;;;;3.00;2.47;;;11.20;1.00;;;;;;6298262;22;20833;-93
2023/11/08 11:35:20;;;;;;;3.90;2.27;;;;;;;;;;6297977;22;20396;-93
2023/11/08 11:38:36;;;;;;;2.53;2.33;;;11.20;1.00;;;;;;6303678;22;20401;-93
2023/11/08 11:41:29;;;;;;;4.00;2.47;;;;;;;;;;6300926;22;20484;-92
2023/11/08 11:44:28;;;;;;;15.20;13.07;;;11.20;1.00;;;;;;6299862;22;20464;-92
2023/11/08 11:46:56;;;;;;;7.47;5.80;;;11.20;1.00;;;;;;6303358;22;20435;-92
2023/11/08 11:49:32;;;;;;;7.10;6.40;;;11.10;1.00;;;;;;6296859;22;20430;-92
2023/11/08 11:52:02;;;;;;;9.23;7.37;;;;;;;;;;6295772;22;20391;-92
2023/11/08 11:54:41;;;;;;;7.20;6.50;;;;;;;;;;6296643;22;20422;-92
2023/11/08 11:57:16;;;;;;;5.17;3.00;;;;;;;;;;6296585;22;20385;-92
2023/11/08 12:00:04;;;;;;;2.60;2.40;;;11.00;1.00;;;;;;6301976;22;20398;-92
2023/11/08 12:02:47;;;;;;;5.00;2.60;;;;;;;;;;6304405;22;20416;-93
2023/11/08 12:05:35;;;;;;;3.90;1.90;;;;;;;;;;6301992;22;20404;-93
2023/11/08 12:08:03;;;;;;;8.37;2.77;;;;;;;;;;6303526;22;20361;-92
2023/11/08 12:16:21;;;;;;;2.73;2.53;;;;;;;;;;6252712;22;20395;-92
2023/11/08 12:19:28;;;;;;;4.60;2.40;;;11.30;1.00;;;;;;6282719;22;20436;-93
2023/11/08 12:22:04;;;;;;;2.40;2.20;;;;;;;;;;6295540;22;20423;-92
2023/11/08 12:24:37;;;;;;;3.10;2.47;;;;;;;;;;6296260;22;21062;-93
2023/11/08 12:57:16;;;;;;;3.93;2.63;;;;;;;;;;6213077;23;20381;-93
2023/11/08 13:00:49;;;;;;;2.07;1.70;;;11.60;1.00;;;;;;6275382;22;20367;-93
2023/11/08 13:06:40;;;;;;;3.20;2.00;;;;;;;;;;6262463;22;20475;-91
2023/11/08 13:09:15;;;;;;;2.73;2.17;;;;;;;;;;6303737;22;20419;-92
2023/11/08 13:11:49;;;;;;;2.50;2.30;;;;;;;;;;6298009;22;20365;-93
2023/11/08 13:14:20;;;;;;;3.53;2.10;;;;;;;;;;6297242;22;20400;-92
2023/11/08 13:16:53;;;;;;;2.30;2.10;;;;;;;;;;6296494;22;20885;-93
2023/11/08 13:19:26;;;;;;;2.80;2.20;;;;;;;;;;6303586;22;20399;-93
2023/11/08 13:24:52;;;;;;;4.47;2.67;;;;;;;;;;6305704;22;20391;-92
2023/11/08 13:27:23;;;;;;;8.23;2.57;;;;;;;;;;6306541;22;20397;-91
2023/11/08 13:30:06;;;;;;;3.43;1.67;;;;;;;;;;6306483;22;20450;-92
2023/11/08 13:32:39;;;;;;;2.00;1.80;;;;;;;;;;6306247;22;20440;-91
2023/11/08 13:35:13;;;;;;;3.20;1.50;;;;;;;;;;6262451;22;20437;-91
2023/11/08 13:37:47;;;;;;;6.63;1.53;;;;;;;;;;6245206;23;20361;-92
2023/11/08 13:40:26;;;;;;;2.50;2.00;;;;;;;;;;6244306;23;20398;-92
2023/11/08 13:43:00;;;;;;;1.67;1.40;;;;;;;;;;6244152;23;20419;-92
2023/11/08 13:45:30;;;;;;;13.60;2.90;;;;;;;;;;6241014;23;20424;-94
2023/11/08 13:48:10;;;;;;;2.90;2.00;;;;;;;;;;6238794;23;20401;-93
2023/11/08 13:50:57;;;;;;;2.70;2.50;;;11.40;1.00;;;;;;6237877;23;20381;-92
2023/11/08 13:53:30;;;;;;;11.00;7.27;;;;;;;;;;6239233;23;20418;-93
2023/11/08 13:56:01;;;;;;;9.53;2.80;;;;;;;;;;6244407;23;20534;-92
2023/11/08 13:58:34;;;;;;;2.10;1.90;;;;;;;;;;6243681;23;20422;-94
2023/11/08 14:01:08;;;;;;;3.20;1.80;;;;;;;;;;6237261;23;20405;-93
2023/11/08 14:04:14;;;;;;;3.30;1.63;;;11.70;1.00;;;;;;6243936;23;20468;-93
2023/11/08 14:06:52;;;;;;;3.47;2.40;;;;;;;;;;6244485;23;20418;-93
2023/11/08 14:09:27;;;;;;;3.10;1.63;;;;;;;;;;6241618;23;20489;-94
2023/11/08 14:12:09;;;;;;;2.23;2.03;;;;;;;;;;6243028;23;20356;-93
2023/11/08 14:14:40;;;;;;;3.90;1.67;;;;;;;;;;6244013;23;20421;-92
2023/11/08 14:17:21;;;;;;;3.23;2.70;;;;;;;;;;6244628;23;20418;-91
2023/11/08 14:19:51;;;;;;;3.93;2.50;;;;;;;;;;6244791;23;20450;-91
2023/11/08 14:22:27;;;;;;;4.37;2.27;;;;;;;;;;6244657;23;20390;-92
2023/11/08 14:25:01;;;;;;;2.30;2.07;;;;;;;;;;6244682;23;20378;-92
2023/11/08 14:27:31;;;;;;;2.80;2.60;;;;;;;;;;6240386;23;20459;-93
2023/11/08 14:30:05;;;;;;;4.80;2.00;;;;;;;;;;6238075;23;20406;-92
2023/11/08 14:32:37;;;;;;;11.63;2.93;;;;;;;;;;6237709;23;20455;-94
2023/11/08 14:35:13;;;;;;;2.67;2.10;;;;;;;;;;6239687;23;20406;-93
2023/11/08 14:37:47;;;;;;;5.73;2.70;;;;;;;;;;6244540;23;20394;-91
2023/11/08 14:40:16;;;;;;;5.37;2.00;;;;;;;;;;6244940;23;20362;-92
2023/11/08 14:45:38;;;;;;;3.47;1.77;;;;;;;;;;6241382;23;20371;-92
2023/11/08 14:48:22;;;;;;;2.30;1.80;;;;;;;;;;6240662;23;20390;-92
2023/11/08 14:50:51;;;;;;;2.63;1.80;;;;;;;;;;6236322;23;20378;-92
2023/11/08 14:53:22;;;;;;;2.40;2.00;;;;;;;;;;6235942;23;20438;-92
2023/11/08 14:55:53;;;;;;;1.93;1.70;;;;;;;;;;6234168;23;20403;-93
2023/11/08 14:58:22;;;;;;;3.10;2.10;;;;;;;;;;6242255;23;20429;-92
2023/11/08 15:00:57;;;;;;;3.27;2.87;;;;;;;;;;6244380;23;20485;-92
2023/11/08 15:03:31;;;;;;;3.00;2.77;;;;;;;;;;6244669;23;20405;-91
2023/11/08 15:06:07;;;;;;;4.23;3.20;;;;;;;;;;6244087;23;20420;-92
2023/11/08 15:08:48;;;;;;;3.20;2.90;;;;;;;;;;6238954;23;20417;-93
2023/11/08 15:11:19;;;;;;;3.83;2.83;;;;;;;;;;6235933;23;20397;-94
2023/11/08 15:13:57;;;;;;;7.10;2.70;;;;;;;;;;6240796;23;20501;-93
2023/11/08 15:16:39;;;;;;;2.83;2.40;;;;;;;;;;6243836;23;20418;-91
2023/11/08 15:19:14;;;;;;;3.00;2.30;;;;;;;;;;6244256;23;20410;-93
2023/11/08 15:21:55;;;;;;;2.50;2.30;;;;;;;;;;6235129;23;20406;-93
2023/11/08 15:24:42;;;;;;;4.30;2.57;;;;;;;;;;6234852;23;20389;-93
2023/11/08 15:27:16;;;;;;;3.73;3.30;;;;;;;;;;6235579;23;20438;-93
2023/11/08 15:29:55;;;;;;;5.30;2.87;;;;;;;;;;6240793;23;20393;-93
2023/11/08 15:32:37;;;;;;;;;;;;;;;;;;;;;
2023/11/08 15:35:09;;;;;;;6.60;2.70;;;;;;;;;;6240311;23;20465;-91
2023/11/08 15:37:40;;;;;;;5.87;2.43;;;;;;;;;;6243559;23;20391;-92
2023/11/08 15:40:09;;;;;;;3.30;3.00;;;;;;;;;;6243700;23;20391;-92
2023/11/08 15:42:36;;;;;;;10.30;6.10;;;;;;;;;;6243378;23;20490;-92
2023/11/08 15:45:12;;;;;;;5.97;3.20;;;;;;;;;;6238707;23;20389;-92
2023/11/08 15:47:42;;;;;;;4.20;3.80;;;;;;;;;;6242080;23;20372;-93
2023/11/08 15:50:21;;;;;;;3.23;3.00;;;;;;;;;;6240926;23;20394;-93
2023/11/08 15:52:49;;;;;;;7.23;3.87;;;;;;;;;;6242190;23;20493;-92
2023/11/08 15:55:42;;;;;;;4.90;3.73;;;10.00;1.00;;;;;;6242981;23;20460;-92
2023/11/08 15:58:20;;;;;;;13.83;6.90;;;;;;;;;;6212881;23;20374;-93
2023/11/08 16:00:55;;;;;;;4.27;3.63;;;;;;;;;;6211719;23;20380;-92
2023/11/08 16:03:29;;;;;;;3.70;3.40;;;;;;;;;;6210879;23;20369;-94
2023/11/08 16:05:56;;;;;;;8.37;5.07;;;;;;;;;;6207704;23;20390;-93
2023/11/08 16:08:29;;;;;;;6.53;3.97;;;;;;;;;;6207398;23;20369;-94
2023/11/08 16:10:59;;;;;;;12.73;3.93;;;;;;;;;;6208279;23;20385;-93
2023/11/08 16:13:27;;;;;;;6.07;4.30;;;;;;;;;;6206871;23;20434;-93
2023/11/08 16:16:12;;;;;;;8.53;4.40;;;;;;;;;;6213544;23;20419;-92
2023/11/08 16:18:40;;;;;;;6.87;5.80;;;;;;;;;;6212717;23;20393;-93
2023/11/08 16:21:10;;;;;;;6.50;5.27;;;;;;;;;;6203893;23;20391;-92
2023/11/08 16:23:48;;;;;;;10.03;6.33;;;9.70;99.90;;;;;;6206305;23;20362;-93
2023/11/08 16:26:19;;;;;;;8.43;5.13;;;;;;;;;;6210539;23;20404;-92
2023/11/08 16:28:50;;;;;;;18.00;9.10;;;;;;;;;;6212650;23;20406;-93
2023/11/08 16:31:24;;;;;;;15.23;9.07;;;;;;;;;;6212702;23;20358;-92
2023/11/08 16:33:51;;;;;;;13.20;6.80;;;;;;;;;;6213271;23;20423;-91
2023/11/08 16:39:00;;;;;;;10.63;6.10;;;;;;;;;;6211177;23;20439;-92
2023/11/08 16:41:27;;;;;;;9.17;5.93;;;;;;;;;;6213493;23;20354;-89
2023/11/08 16:44:01;;;;;;;7.50;5.83;;;;;;;;;;6211886;23;20369;-92
2023/11/08 16:46:46;;;;;;;9.63;5.70;;;;;;;;;;6213092;23;20412;-92
2023/11/08 16:49:17;;;;;;;11.67;5.50;;;;;;;;;;6212780;23;20387;-93
2023/11/08 16:51:45;;;;;;;7.00;5.33;;;;;;;;;;6210346;23;20403;-92
2023/11/08 16:54:21;;;;;;;10.00;5.77;;;;;;;;;;6208079;23;20421;-92
2023/11/08 16:57:06;;;;;;;11.10;5.90;;;;;;;;;;6207837;23;20414;-92
2023/11/08 16:59:45;;;;;;;10.30;6.93;;;;;;;;;;6213489;23;20383;-90
2023/11/08 17:02:19;;;;;;;9.67;6.60;;;;;;;;;;6213705;23;20375;-90
2023/11/08 17:04:47;;;;;;;11.17;6.50;;;;;;;;;;6213344;23;20375;-90
2023/11/08 17:07:17;;;;;;;9.63;5.47;;;;;;;;;;6187068;23;20432;-91
2023/11/08 17:09:51;;;;;;;9.60;6.50;;;;;;;;;;6214099;22;20460;-90
2023/11/08 17:12:27;;;;;;;10.20;5.57;;;;;;;;;;6273947;22;20441;-92
2023/11/08 17:14:55;;;;;;;14.00;6.03;;;;;;;;;;6273912;22;20421;-90
2023/11/08 17:17:24;;;;;;;5.57;4.60;;;;;;;;;;6273803;22;20408;-90
2023/11/08 17:19:57;;;;;;;9.57;5.20;;;9.10;99.90;;;;;;6271292;22;20457;-92
2023/11/08 17:22:24;;;;;;;6.27;4.77;;;;;;;;;;6271252;23;20377;-93
2023/11/08 18:29:59;;;;;;;4.07;2.53;;;;;;;;;;6212812;23;20528;-92
2023/11/08 18:32:34;;;;;;;6.80;3.13;;;;;;;;;;6238736;23;20388;-92
2023/11/08 18:37:57;;;;;;;4.90;3.23;;;;;;;;;;6244719;22;20412;-92
2023/11/08 18:40:46;;;;;;;14.77;3.30;;;;;;;;;;6238759;23;20402;-93
2023/11/08 18:48:54;;;;;;;4.13;3.80;;;;;;;;;;6237620;23;20441;-93
2023/11/08 18:51:33;;;;;;;6.47;5.10;;;;;;;;;;6238162;23;20365;-93
2023/11/08 18:56:51;;;;;;;7.70;4.37;;;;;;;;;;6176220;22;20406;-93
2023/11/08 18:59:29;;;;;;;6.40;3.57;;;;;;;;;;6274869;22;20376;-92
2023/11/08 19:05:39;;;;;;;5.77;3.93;;;9.30;99.90;;;;;;6117934;23;20426;-93
2023/11/08 19:08:30;;;;;;;7.70;5.10;;;9.30;99.90;;;;;;6114092;23;20429;-93
2023/11/08 19:10:57;;;;;;;5.00;2.97;;;;;;;;;;6112923;23;20392;-92
2023/11/08 19:13:28;;;;;;;10.50;4.27;;;;;;;;;;6115562;23;20369;-93
2023/11/08 19:16:09;;;;;;;5.77;3.20;;;;;;;;;;6220134;23;20455;-92
2023/11/08 20:22:43;;;;;;;11.50;4.87;;;;;;;;;;6243865;23;20451;-93
2023/11/08 20:47:18;;;;;;;5.03;4.53;;;8.30;1.00;;;;;;6221347;22;20432;-92
2023/11/08 20:50:40;;;;;;;5.50;3.40;;;8.30;1.00;;;;;;6241505;23;20357;-93
2023/11/08 20:53:34;;;;;;;3.30;3.00;;;8.20;1.00;;;;;;6240411;23;20385;-93
2023/11/08 20:57:03;;;;;;;5.27;4.00;;;8.20;1.00;;;;;;6090704;23;20436;-93
2023/11/08 20:59:39;;;;;;;6.10;5.13;;;;;;;;;;6211092;23;20376;-92
2023/11/08 21:02:32;;;;;;;9.60;4.37;;;8.20;45.90;;;;;;6211596;23;20377;-93
2023/11/08 21:05:06;;;;;;;6.17;4.00;;;;;;;;;;6213067;23;20411;-92
2023/11/08 21:07:45;;;;;;;6.70;4.23;;;;;;;;;;6210227;23;20385;-93
2023/11/08 21:16:34;;;;;;;5.63;3.50;;;;;;;;;;6214812;23;20472;-92
2023/11/08 21:19:16;;;;;;;4.80;4.10;;;;;;;;;;6215422;23;20402;-94
2023/11/08 21:21:49;;;;;;;4.57;3.60;;;;;;;;;;6215501;23;20406;-93
2023/11/08 21:49:10;;;;;;;9.50;5.20;;;;;;;;;;6236179;23;20488;-94
2023/11/08 22:03:02;;;;;;;4.63;3.10;;;;;;;;;;6238168;23;20406;-93
2023/11/08 22:05:44;;;;;;;7.70;3.50;;;7.70;1.00;;;;;;6265315;22;20405;-93
2023/11/08 22:08:22;;;;;;;4.90;3.70;;;;;;;;;;6273021;22;20389;-92
2023/11/08 22:13:42;;;;;;;5.00;3.03;;;;;;;;;;6266795;23;20388;-91
2023/11/08 22:16:15;;;;;;;3.10;2.60;;;;;;;;;;6266952;23;20390;-91
2023/11/08 22:18:44;;;;;;;4.43;2.53;;;;;;;;;;6271996;22;20411;-93
2023/11/08 22:21:19;;;;;;;4.63;3.30;;;;;;;;;;6269720;22;20378;-92
